Time;durP1;ratioP1;P1;durP2;ratioP2;P2;SDS_P1;SDS_P2;PMS_P1;PMS_P2;Temp;Humidity;BMP_temperature;BMP_pressure;BME280_temperature;BME280_humidity;BME280_pressure;Samples;Min_cycle;Max_cycle;Signal;HPM_P1;HPM_P2
2021/04/13 00:01:13;;;;;;;31.80;22.70;;;;;;;9.15;67.84;99874.63;117225;1209;22969;-65
2021/04/13 00:03:55;;;;;;;40.40;23.90;;;;;;;9.13;68.25;99872.14;116516;1176;23750;-67
2021/04/13 00:06:36;;;;;;;38.15;23.55;;;;;;;9.12;67.88;99870.49;117144;1206;22895;-67
2021/04/13 00:09:20;;;;;;;38.97;23.93;;;;;;;9.09;67.67;99876.41;117201;1210;23080;-67
2021/04/13 00:11:52;;;;;;;35.35;23.60;;;;;;;9.07;67.78;99866.86;117093;1212;22851;-67
2021/04/13 00:14:23;;;;;;;39.20;24.05;;;;;;;9.04;68.08;99870.05;116935;1212;22918;-67
2021/04/13 00:16:53;;;;;;;40.45;24.40;;;;;;;9.02;67.96;99861.30;117197;1211;23436;-67
2021/04/13 00:19:21;;;;;;;38.95;23.45;;;;;;;9.00;68.37;99861.55;117168;1211;22837;-67
2021/04/13 00:21:53;;;;;;;37.65;24.15;;;;;;;9.00;68.01;99866.16;117155;1211;22967;-67
2021/04/13 00:24:22;;;;;;;44.25;24.30;;;;;;;8.98;68.16;99868.28;117180;1210;22845;-67
2021/04/13 00:26:51;;;;;;;41.20;24.50;;;;;;;8.96;68.11;99864.97;117214;1212;23421;-67
2021/04/13 00:29:21;;;;;;;38.90;23.75;;;;;;;8.94;68.31;99869.84;117125;1211;22984;-67
2021/04/13 00:31:54;;;;;;;36.55;23.80;;;;;;;8.95;68.30;99871.47;117027;1212;22883;-67
2021/04/13 00:34:26;;;;;;;37.70;24.80;;;;;;;8.94;68.48;99870.67;117182;1210;22893;-65
2021/04/13 00:37:08;;;;;;;35.97;24.00;;;;;;;8.94;68.47;99876.11;117257;1212;22849;-65
2021/04/13 00:39:36;;;;;;;38.90;24.45;;;;;;;8.93;68.05;99870.91;117188;1211;22838;-65
2021/04/13 00:42:13;;;;;;;38.27;25.20;;;;;;;8.82;67.95;99853.53;117233;1212;22831;-65
2021/04/13 00:44:46;;;;;;;34.85;23.90;;;;;;;8.88;68.01;99877.05;116950;1211;22928;-65
2021/04/13 00:47:23;;;;;;;32.85;23.65;;;;;;;8.85;68.25;99869.36;117000;1212;23866;-65
2021/04/13 00:49:52;;;;;;;;;;;;;;;8.83;68.39;99868.77;116986;1213;22991;-65
2021/04/13 00:52:20;;;;;;;39.00;25.20;;;;;;;8.81;68.22;99865.46;116873;1212;21467;-65
2021/04/13 00:54:53;;;;;;;40.30;23.05;;;;;;;8.78;68.60;99869.50;116926;1212;23049;-65
2021/04/13 00:57:30;;;;;;;38.60;23.70;;;;;;;8.69;68.74;99854.61;117196;1210;23766;-65
2021/04/13 01:00:00;;;;;;;48.60;24.60;;;;;;;8.74;68.76;99871.03;116927;1211;22891;-65
2021/04/13 01:02:29;;;;;;;38.85;22.60;;;;;;;8.73;68.78;99863.13;117231;1212;23533;-65
2021/04/13 01:05:17;;;;;;;38.80;23.35;;;;;;;8.73;68.90;99861.23;116988;1212;22849;-65
2021/04/13 01:07:52;;;;;;;36.93;24.63;;;;;;;8.72;68.80;99859.58;117236;1211;23015;-65
2021/04/13 01:10:34;;;;;;;37.10;23.50;;;;;;;8.71;69.15;99857.92;117213;1212;23004;-64
2021/04/13 01:13:08;;;;;;;39.45;23.05;;;;;;;8.72;68.76;99865.01;116873;1211;22951;-64
2021/04/13 01:15:41;;;;;;;37.70;24.70;;;;;;;8.73;68.53;99865.84;117173;1211;23069;-64
2021/04/13 01:18:12;;;;;;;37.50;25.30;;;;;;;8.74;68.67;99868.32;116967;1211;24002;-64
2021/04/13 01:21:00;;;;;;;45.60;28.30;;;;;;;8.71;68.95;99868.79;117003;1212;22964;-64
2021/04/13 01:23:37;;;;;;;45.40;28.40;;;;;;;8.67;68.73;99867.59;116915;1212;23759;-64
2021/04/13 01:26:05;;;;;;;40.35;26.10;;;;;;;8.65;68.27;99863.50;116944;1211;23729;-64
2021/04/13 01:28:37;;;;;;;43.90;26.40;;;;;;;8.63;68.78;99861.02;117205;1212;22963;-64
2021/04/13 01:31:45;;;;;;;40.83;25.77;;;;;;;8.63;69.14;99860.19;116902;1210;22818;-64
2021/04/13 01:34:34;;;;;;;42.70;26.05;;;;;;;8.62;69.18;99859.36;117176;1211;22931;-64
2021/04/13 01:37:17;;;;;;;38.03;23.97;;;;;;;8.65;69.27;99863.50;117194;1212;22843;-64
2021/04/13 01:39:56;;;;;;;41.80;25.45;;;;;;;8.65;69.17;99863.50;117206;1211;22962;-65
2021/04/13 01:42:25;;;;;;;40.00;24.75;;;;;;;8.65;69.21;99853.45;117185;1211;24099;-65
2021/04/13 01:45:06;;;;;;;34.60;25.20;;;;;;;8.67;69.54;99850.47;116934;1212;22874;-65
2021/04/13 01:47:40;;;;;;;43.27;24.90;;;;;;;8.68;69.48;99852.13;116967;1211;23041;-65
2021/04/13 01:50:13;;;;;;;40.40;25.70;;;;;;;8.65;69.00;99845.31;117213;1212;22842;-65
2021/04/13 01:52:43;;;;;;;39.50;24.45;;;;;;;8.63;69.37;99844.72;116929;1211;23686;-65
2021/04/13 01:55:24;;;;;;;36.30;25.07;;;;;;;8.63;69.55;99847.43;117032;1212;23940;-66
2021/04/13 01:58:38;;;;;;;42.40;25.30;;;;;;;8.62;69.74;99853.09;117028;1211;22905;-66
2021/04/13 02:01:29;;;;;;;38.30;24.85;;;;;;;8.58;69.58;99847.30;116606;1215;22923;-66
2021/04/13 02:04:03;;;;;;;43.60;23.95;;;;;;;8.56;69.17;99849.42;116798;1215;23704;-65
2021/04/13 02:06:43;;;;;;;34.55;22.70;;;;;;;8.55;69.63;99847.77;116841;1215;22849;-65
2021/04/13 02:10:18;;;;;;;37.20;23.00;;;;;;;8.55;69.79;99846.95;116769;1215;22854;-65
2021/04/13 02:12:16;;;;;;;41.15;24.55;;;;;;;8.56;70.26;99845.88;116650;1215;22970;-66
2021/04/13 02:14:53;;;;;;;46.20;24.10;;;;;;;8.58;69.75;99846.48;116789;1214;24397;-66
2021/04/13 02:17:26;;;;;;;43.20;25.20;;;;;;;8.59;70.12;99854.39;113004;1219;25801;-65
2021/04/13 02:19:54;;;;;;;41.10;24.80;;;;;;;8.61;69.81;99844.13;116799;1215;22930;-65
2021/04/13 02:22:22;;;;;;;41.20;26.00;;;;;;;8.63;69.70;99847.43;116764;1213;22845;-65
2021/04/13 02:24:52;;;;;;;38.20;25.65;;;;;;;8.62;70.14;99845.78;116825;1215;22879;-65
2021/04/13 02:27:24;;;;;;;39.10;25.95;;;;;;;8.63;69.62;99836.56;116783;1215;23916;-66
2021/04/13 02:29:53;;;;;;;33.90;23.60;;;;;;;8.64;70.36;99831.96;116828;1215;22939;-66
2021/04/13 02:32:27;;;;;;;36.60;23.55;;;;;;;8.63;69.84;99833.85;116752;1215;22875;-66
2021/04/13 02:34:58;;;;;;;39.90;26.50;;;;;;;8.65;70.37;99837.16;116809;1215;22904;-65
2021/04/13 02:37:44;;;;;;;40.50;25.90;;;;;;;8.66;70.07;99841.50;116884;1212;22832;-66
2021/04/13 02:40:20;;;;;;;37.17;24.30;;;;;;;8.65;69.92;99837.16;117062;1211;22990;-66
2021/04/13 02:42:49;;;;;;;37.55;23.95;;;;;;;8.67;70.24;99843.16;116962;1212;22964;-66
2021/04/13 02:45:30;;;;;;;40.30;24.10;;;;;;;8.67;70.17;99843.16;116741;1210;23265;-64
2021/04/13 02:48:10;;;;;;;41.20;24.20;;;;;;;8.54;70.67;99818.95;117157;1211;22941;-64
2021/04/13 02:50:39;;;;;;;37.70;23.55;;;;;;;8.66;70.26;99836.06;116974;1212;22857;-64
2021/04/13 02:53:06;;;;;;;39.17;24.27;;;;;;;8.68;70.36;99841.27;116842;1212;22878;-64
2021/04/13 02:55:36;;;;;;;36.50;23.70;;;;;;;8.69;69.94;99837.48;116986;1212;23765;-64
2021/04/13 02:58:10;;;;;;;33.60;23.70;;;;;;;8.70;70.24;99844.58;117216;1212;22935;-64
2021/04/13 03:00:45;;;;;;;35.10;24.25;;;;;;;8.71;70.15;99844.34;116949;1211;22877;-64
2021/04/13 03:03:15;;;;;;;46.60;26.90;;;;;;;8.71;70.29;99841.63;117007;1211;23013;-64
2021/04/13 03:05:45;;;;;;;39.30;24.60;;;;;;;8.70;69.72;99845.41;117192;1212;22842;-64
2021/04/13 03:08:14;;;;;;;38.25;24.40;;;;;;;8.70;70.04;99839.97;116965;1211;22940;-64
2021/04/13 03:10:43;;;;;;;41.30;24.80;;;;;;;8.70;70.42;99839.97;117008;1210;22901;-64
2021/04/13 03:13:13;;;;;;;40.30;24.25;;;;;;;8.72;70.35;99840.56;116747;1212;22898;-64
2021/04/13 03:15:41;;;;;;;40.90;25.15;;;;;;;8.73;70.17;99844.93;116948;1211;22918;-66
2021/04/13 03:18:29;;;;;;;;;;;;;;;8.70;69.94;99847.29;117034;1217;22963;-65
2021/04/13 03:21:19;;;;;;;38.40;23.75;;;;;;;8.68;70.13;99842.09;117188;1212;21461;-65
2021/04/13 03:23:46;;;;;;;41.50;24.10;;;;;;;8.67;70.52;99842.33;117029;1212;23882;-65
2021/04/13 03:26:19;;;;;;;43.20;24.20;;;;;;;8.68;70.16;99842.09;116958;1211;22893;-66
2021/04/13 03:28:52;;;;;;;38.40;24.50;;;;;;;8.66;70.97;99846.10;116940;1212;22850;-66
2021/04/13 03:31:20;;;;;;;37.27;25.07;;;;;;;8.65;70.32;99844.48;116970;1212;22873;-66
2021/04/13 03:33:48;;;;;;;47.75;31.10;;;;;;;8.65;71.11;99853.45;116884;1212;22887;-66
2021/04/13 03:36:20;;;;;;;56.35;38.20;;;;;;;8.62;70.92;99839.52;116999;1211;22819;-66
2021/04/13 03:38:52;;;;;;;48.30;30.60;;;;;;;8.62;71.19;99842.23;116977;1212;22928;-66
2021/04/13 03:41:19;;;;;;;55.93;40.67;;;;;;;8.61;70.82;99843.30;116936;1212;23493;-66
2021/04/13 03:43:49;;;;;;;50.00;32.95;;;;;;;8.60;71.14;99844.35;116929;1212;22957;-65
2021/04/13 03:46:17;;;;;;;44.03;27.87;;;;;;;8.50;71.24;99829.49;116947;1212;23992;-67
2021/04/13 03:48:47;;;;;;;46.40;27.00;;;;;;;8.59;70.62;99851.67;116959;1211;22820;-67
2021/04/13 03:51:28;;;;;;;43.25;25.60;;;;;;;8.56;70.67;99845.88;116963;1212;22802;-67
2021/04/13 03:53:56;;;;;;;45.70;25.40;;;;;;;8.56;71.16;99849.42;117657;1206;24985;-67
2021/04/13 03:56:25;;;;;;;44.17;24.67;;;;;;;8.58;71.24;99850.02;117702;1205;24199;-64
2021/04/13 03:58:58;;;;;;;43.15;24.10;;;;;;;8.58;71.04;99851.91;117682;1206;23583;-64
2021/04/13 04:01:32;;;;;;;42.75;24.70;;;;;;;8.58;71.60;99852.73;117739;1206;22824;-64
2021/04/13 04:04:03;;;;;;;44.05;27.35;;;;;;;8.58;71.44;99854.63;117660;1205;23568;-64
2021/04/13 04:06:42;;;;;;;36.90;25.00;;;;;;;8.54;71.51;99851.55;117743;1205;23525;-64
2021/04/13 04:09:16;;;;;;;43.50;25.60;;;;;;;8.54;71.34;99856.16;117670;1205;22866;-64
2021/04/13 04:11:44;;;;;;;45.35;27.20;;;;;;;8.51;71.79;99852.05;117699;1206;23085;-64
2021/04/13 04:14:13;;;;;;;43.00;25.80;;;;;;;8.48;71.22;99858.77;117379;1207;24119;-64
2021/04/13 04:16:41;;;;;;;55.80;26.17;;;;;;;8.46;72.15;99858.17;117450;1208;23701;-64
2021/04/13 04:19:13;;;;;;;44.15;28.85;;;;;;;8.43;71.47;99852.38;117394;1209;24178;-64
2021/04/13 04:21:48;;;;;;;50.50;31.15;;;;;;;8.41;71.66;99857.22;117406;1209;22863;-64
2021/04/13 04:24:21;;;;;;;48.20;30.20;;;;;;;8.37;72.15;99864.17;117427;1208;22955;-65
2021/04/13 04:26:51;;;;;;;45.80;28.60;;;;;;;8.34;71.78;99861.95;114755;1210;23155;-64
2021/04/13 04:29:32;;;;;;;43.70;26.15;;;;;;;8.32;72.56;99859.47;117451;1209;22858;-64
2021/04/13 04:32:29;;;;;;;47.25;27.55;;;;;;;8.34;72.71;99862.78;117463;1211;22932;-65
2021/04/13 04:34:58;;;;;;;35.70;24.20;;;;;;;8.37;72.43;99861.45;117349;1209;22853;-64
2021/04/13 04:37:27;;;;;;;43.10;24.20;;;;;;;8.38;72.16;99857.68;117358;1207;23039;-64
2021/04/13 04:40:19;;;;;;;43.63;24.90;;;;;;;8.38;72.34;99863.94;117409;1207;22876;-65
2021/04/13 04:43:00;;;;;;;39.50;22.70;;;;;;;8.39;72.30;99867.48;117353;1208;22862;-64
2021/04/13 04:45:43;;;;;;;41.10;23.70;;;;;;;8.41;72.33;99859.93;117537;1206;22986;-64
2021/04/13 04:48:24;;;;;;;45.45;23.10;;;;;;;8.44;72.75;99863.02;117664;1206;22801;-64
2021/04/13 04:51:08;;;;;;;36.20;23.55;;;;;;;8.45;72.15;99864.66;117700;1205;23050;-64
2021/04/13 04:53:37;;;;;;;41.10;23.90;;;;;;;8.46;72.93;99854.63;117741;1206;23072;-64
2021/04/13 04:56:06;;;;;;;46.95;26.65;;;;;;;8.46;72.54;99849.20;117688;1206;23028;-64
2021/04/13 04:58:34;;;;;;;42.30;26.20;;;;;;;8.45;72.83;99861.13;117672;1205;23747;-64
2021/04/13 05:01:04;;;;;;;41.10;26.85;;;;;;;8.44;73.37;99857.58;117714;1206;23499;-64
2021/04/13 05:03:42;;;;;;;47.55;27.15;;;;;;;8.44;72.75;99854.86;117654;1206;22814;-64
2021/04/13 05:06:10;;;;;;;47.30;27.60;;;;;;;8.46;73.22;99857.34;117665;1206;22892;-64
2021/04/13 05:08:37;;;;;;;48.90;27.20;;;;;;;8.48;73.14;99855.23;117662;1206;23080;-64
2021/04/13 05:11:10;;;;;;;50.00;29.30;;;;;;;8.51;73.16;99852.05;117695;1206;23543;-64
2021/04/13 05:13:38;;;;;;;50.60;27.60;;;;;;;8.53;72.89;99855.33;117745;1206;22986;-64
2021/04/13 05:16:06;;;;;;;44.65;27.55;;;;;;;8.55;73.04;99850.48;117727;1205;22929;-64
2021/04/13 05:18:33;;;;;;;47.30;26.60;;;;;;;8.58;72.53;99846.48;117720;1206;23899;-64
2021/04/13 05:21:01;;;;;;;47.05;27.80;;;;;;;8.58;72.95;99852.73;117748;1205;22919;-64
2021/04/13 05:23:28;;;;;;;49.50;27.20;;;;;;;8.60;72.45;99847.90;117703;1206;23968;-64
2021/04/13 05:25:56;;;;;;;47.20;28.70;;;;;;;8.63;72.91;99846.60;117683;1205;22812;-64
2021/04/13 05:28:23;;;;;;;49.85;27.60;;;;;;;8.65;72.38;99848.02;117716;1206;24013;-65
2021/04/13 05:30:51;;;;;;;40.20;25.40;;;;;;;8.68;72.60;99843.98;117664;1206;23581;-64
2021/04/13 05:33:19;;;;;;;39.65;26.15;;;;;;;8.72;73.15;99845.99;117743;1204;22959;-65
2021/04/13 05:35:47;;;;;;;50.45;26.20;;;;;;;8.74;72.83;99845.77;117651;1204;22862;-65
2021/04/13 05:38:18;;;;;;;60.97;28.43;;;;;;;8.75;72.96;99842.81;117704;1206;23533;-64
2021/04/13 05:40:45;;;;;;;41.60;25.50;;;;;;;8.77;73.03;99839.86;117634;1205;22882;-64
2021/04/13 05:43:13;;;;;;;48.80;28.00;;;;;;;8.80;72.90;99847.54;117675;1205;23063;-64
2021/04/13 05:45:42;;;;;;;47.70;26.70;;;;;;;8.80;72.91;99836.67;117682;1205;22893;-64
2021/04/13 05:48:10;;;;;;;45.30;26.10;;;;;;;8.80;72.50;99840.18;117702;1206;22801;-65
2021/04/13 05:50:41;;;;;;;54.90;30.60;;;;;;;8.81;72.84;99838.30;117723;1206;22878;-64
2021/04/13 05:53:09;;;;;;;45.05;29.20;;;;;;;8.83;72.94;99850.58;117691;1205;27164;-64
2021/04/13 05:55:37;;;;;;;47.25;27.75;;;;;;;8.84;72.85;99845.97;117690;1205;23838;-64
2021/04/13 05:58:08;;;;;;;54.50;31.90;;;;;;;8.85;72.61;99837.58;117689;1206;23066;-65
2021/04/13 06:00:35;;;;;;;44.45;28.60;;;;;;;8.89;72.35;99837.94;117704;1206;22819;-64
2021/04/13 06:03:03;;;;;;;45.35;25.30;;;;;;;8.93;72.71;99841.02;117683;1205;23635;-64
2021/04/13 06:05:31;;;;;;;48.95;28.15;;;;;;;8.94;72.69;99838.06;117700;1205;22896;-64
2021/04/13 06:07:59;;;;;;;47.60;27.00;;;;;;;8.97;72.96;99845.70;117628;1206;24420;-65
2021/04/13 06:10:27;;;;;;;43.10;27.80;;;;;;;9.01;72.42;99838.73;117716;1206;22838;-64
2021/04/13 06:12:56;;;;;;;52.60;29.20;;;;;;;9.05;72.63;99847.24;117742;1206;23746;-64
2021/04/13 06:15:25;;;;;;;63.40;36.25;;;;;;;9.10;72.93;99850.88;117709;1206;22846;-64
2021/04/13 06:17:52;;;;;;;66.50;34.35;;;;;;;9.13;72.19;99846.86;117703;1206;22965;-65
2021/04/13 06:20:21;;;;;;;53.77;33.83;;;;;;;9.16;72.65;99854.53;117693;1205;23579;-65
2021/04/13 06:22:49;;;;;;;48.80;30.60;;;;;;;9.17;72.66;99854.30;117719;1205;22819;-64
2021/04/13 06:25:18;;;;;;;46.80;28.67;;;;;;;9.20;72.83;99850.28;117673;1206;22920;-65
2021/04/13 06:27:46;;;;;;;53.45;31.70;;;;;;;9.23;72.92;99860.68;117732;1205;23722;-64
2021/04/13 06:30:14;;;;;;;58.80;32.00;;;;;;;9.23;72.52;99852.52;117714;1205;22849;-65
2021/04/13 06:32:41;;;;;;;68.87;38.77;;;;;;;9.20;72.41;99848.39;117744;1207;22907;-65
2021/04/13 06:35:09;;;;;;;108.65;54.25;;;;;;;9.30;72.19;99852.37;117733;1205;22787;-59
2021/04/13 06:37:39;;;;;;;114.20;70.20;;;;;;;9.32;72.58;99850.23;117721;1205;23015;-65
2021/04/13 06:40:08;;;;;;;73.30;42.00;;;;;;;9.33;72.48;99850.00;117668;1206;23848;-64
2021/04/13 06:42:59;;;;;;;51.87;30.43;;;;;;;9.35;72.93;99855.20;117728;1206;22905;-64
2021/04/13 06:45:35;;;;;;;54.85;33.40;;;;;;;9.38;72.29;99846.53;117664;1206;24706;-66
2021/04/13 06:48:18;;;;;;;66.25;35.50;;;;;;;9.40;72.77;99845.23;117728;1206;22841;-66
2021/04/13 06:51:11;;;;;;;61.35;33.55;;;;;;;9.41;72.45;99855.04;117675;1205;22968;-65
2021/04/13 06:53:47;;;;;;;50.75;31.90;;;;;;;9.43;72.73;99855.63;117839;1209;24121;-64
2021/04/13 06:56:36;;;;;;;66.30;40.00;;;;;;;9.43;72.84;99852.91;117707;1205;22910;-64
2021/04/13 06:59:05;;;;;;;52.95;31.20;;;;;;;9.44;73.04;99848.30;117746;1206;22946;-65
2021/04/13 07:01:54;;;;;;;53.35;30.95;;;;;;;9.46;73.27;99851.60;117699;1205;23504;-66
2021/04/13 07:04:31;;;;;;;52.45;28.70;;;;;;;9.46;73.69;99854.33;117734;1206;22853;-63
2021/04/13 07:07:02;;;;;;;47.10;27.95;;;;;;;9.46;73.51;99852.43;117709;1206;22864;-64
2021/04/13 07:09:43;;;;;;;44.20;28.20;;;;;;;9.46;73.76;99852.43;117722;1205;23595;-65
2021/04/13 07:13:08;;;;;;;51.75;29.75;;;;;;;9.42;73.71;99859.41;117732;1206;24004;-64
2021/04/13 07:16:01;;;;;;;53.15;27.75;;;;;;;9.39;74.23;99870.77;117287;1209;23050;-65
2021/04/13 07:18:38;;;;;;;51.60;29.10;;;;;;;9.35;74.68;99858.75;117215;1209;22869;-62
2021/04/13 07:21:28;;;;;;;51.10;29.50;;;;;;;9.35;74.36;99866.08;117254;1209;23046;-63
2021/04/13 07:24:00;;;;;;;55.90;28.75;;;;;;;9.34;74.47;99867.97;117224;1209;22865;-63
2021/04/13 07:26:31;;;;;;;50.10;28.30;;;;;;;9.33;75.15;99860.05;117212;1209;22901;-63
2021/04/13 07:29:12;;;;;;;44.50;26.90;;;;;;;9.30;75.14;99855.09;117214;1209;22903;-63
2021/04/13 07:31:55;;;;;;;43.55;28.80;;;;;;;9.32;75.19;99852.95;117216;1209;23354;-63
2021/04/13 07:34:23;;;;;;;52.10;27.30;;;;;;;9.34;75.59;99854.38;117203;1209;23601;-63
2021/04/13 07:37:05;;;;;;;53.90;29.05;;;;;;;9.37;75.39;99855.78;117244;1209;23681;-64
2021/04/13 07:39:33;;;;;;;43.25;27.10;;;;;;;9.39;75.35;99861.78;117176;1207;24749;-64
2021/04/13 07:42:05;;;;;;;44.90;27.50;;;;;;;9.39;75.26;99850.91;117213;1212;24326;-63
2021/04/13 07:44:43;;;;;;;52.00;28.30;;;;;;;9.39;75.60;99849.02;117145;1212;22873;-64
2021/04/13 07:47:32;;;;;;;48.95;29.40;;;;;;;9.34;74.94;99848.94;117169;1212;23613;-64
2021/04/13 07:50:00;;;;;;;47.47;30.17;;;;;;;9.44;75.04;99857.28;117185;1212;22903;-64
2021/04/13 07:52:41;;;;;;;50.50;29.95;;;;;;;9.47;75.22;99858.70;117396;1207;22973;-64
2021/04/13 07:55:20;;;;;;;48.00;34.25;;;;;;;9.51;75.15;99863.42;117404;1208;22918;-64
2021/04/13 07:57:56;;;;;;;61.75;39.85;;;;;;;9.55;74.98;99859.13;117427;1209;23079;-64
2021/04/13 08:00:30;;;;;;;54.40;33.15;;;;;;;9.60;75.51;99863.02;117434;1208;23018;-64
2021/04/13 08:03:19;;;;;;;52.23;30.97;;;;;;;9.63;75.01;99854.38;117461;1208;23921;-63
2021/04/13 08:05:49;;;;;;;53.45;32.15;;;;;;;9.68;74.98;99855.27;117392;1208;22916;-63
2021/04/13 08:08:25;;;;;;;53.25;32.30;;;;;;;9.68;74.94;99849.83;117444;1209;23008;-64
2021/04/13 08:11:14;;;;;;;47.90;32.05;;;;;;;9.69;74.59;99853.38;117300;1209;23123;-64
2021/04/13 08:14:18;;;;;;;47.80;32.10;;;;;;;9.71;74.75;99856.69;117324;1209;24817;-64
2021/04/13 08:16:49;;;;;;;54.00;32.35;;;;;;;9.69;74.78;99848.77;117681;1206;23309;-64
2021/04/13 08:19:26;;;;;;;51.50;31.40;;;;;;;9.69;74.40;99845.22;117699;1205;23733;-64
2021/04/13 08:22:05;;;;;;;53.30;31.00;;;;;;;9.70;74.43;99846.88;117753;1205;22892;-64
2021/04/13 08:24:54;;;;;;;55.43;32.13;;;;;;;9.71;74.43;99845.80;117681;1206;22859;-64
2021/04/13 08:27:31;;;;;;;46.93;30.40;;;;;;;9.70;74.75;99834.09;117729;1205;23519;-64
2021/04/13 08:30:04;;;;;;;51.20;32.90;;;;;;;9.74;75.24;99842.60;117680;1206;23799;-64
2021/04/13 08:32:52;;;;;;;51.33;30.43;;;;;;;9.76;74.91;99846.73;117740;1205;22853;-64
2021/04/13 08:35:47;;;;;;;54.63;32.63;;;;;;;9.79;74.73;99843.53;117699;1205;22851;-64
2021/04/13 08:38:20;;;;;;;55.50;33.60;;;;;;;9.82;74.52;99834.85;117774;1206;22923;-64
2021/04/13 08:41:17;;;;;;;54.50;30.77;;;;;;;9.88;74.56;99835.78;117706;1205;22875;-64
2021/04/13 08:44:20;;;;;;;61.07;32.60;;;;;;;9.93;74.47;99827.71;117779;1206;22832;-64
2021/04/13 08:47:09;;;;;;;65.87;33.30;;;;;;;10.00;74.49;99827.53;117658;1206;24323;-64
2021/04/13 08:49:41;;;;;;;50.65;35.20;;;;;;;10.05;74.17;99824.91;117712;1205;23744;-64
2021/04/13 08:52:18;;;;;;;61.30;35.35;;;;;;;10.07;73.75;99828.21;117694;1205;23725;-64
2021/04/13 08:54:48;;;;;;;57.18;35.38;;;;;;;10.10;73.50;99835.89;117764;1205;22887;-64
2021/04/13 08:57:21;;;;;;;61.65;37.15;;;;;;;10.10;73.40;99831.24;117737;1206;23710;-65
2021/04/13 08:59:52;;;;;;;64.80;39.65;;;;;;;10.08;73.35;99829.86;117764;1206;23534;-66
2021/04/13 09:02:26;;;;;;;58.60;35.80;;;;;;;10.08;73.49;99829.86;117713;1206;23707;-66
2021/04/13 09:05:21;;;;;;;67.30;38.30;;;;;;;10.08;73.62;99830.69;117748;1205;22856;-66
2021/04/13 09:07:53;;;;;;;61.70;35.00;;;;;;;10.08;73.81;99825.25;117695;1206;22914;-66
2021/04/13 09:10:46;;;;;;;56.80;36.30;;;;;;;10.10;73.65;99830.45;117730;1206;23071;-64
2021/04/13 09:13:21;;;;;;;58.00;34.30;;;;;;;10.10;73.90;99827.72;117706;1208;23077;-64
2021/04/13 09:16:11;;;;;;;59.83;34.00;;;;;;;10.09;73.43;99826.08;117746;1206;22814;-64
2021/04/13 09:18:44;;;;;;;65.80;33.93;;;;;;;10.10;73.93;99822.28;117735;1206;22967;-64
2021/04/13 09:21:23;;;;;;;64.57;35.50;;;;;;;10.08;73.69;99821.70;117717;1206;22981;-64
2021/04/13 09:24:10;;;;;;;61.47;36.73;;;;;;;10.07;73.38;99822.77;117740;1205;22852;-64
2021/04/13 09:29:41;;;;;;;61.95;36.70;;;;;;;10.06;74.04;99812.95;113323;1205;25964;-64
2021/04/13 09:32:23;;;;;;;60.23;37.23;;;;;;;10.08;73.57;99818.97;117203;1209;22817;-65
2021/04/13 09:35:39;;;;;;;55.33;34.53;;;;;;;10.10;73.47;99811.39;117237;1209;22927;-65
2021/04/13 09:38:15;;;;;;;59.10;33.45;;;;;;;10.12;73.40;99814.66;117179;1209;22871;-65
2021/04/13 09:41:14;;;;;;;60.70;31.90;;;;;;;10.12;73.35;99812.77;117211;1209;22938;-63
2021/04/13 09:44:00;;;;;;;49.75;31.60;;;;;;;10.17;73.01;99809.31;117189;1212;23831;-65
2021/04/13 09:46:46;;;;;;;44.83;29.75;;;;;;;10.22;73.47;99815.70;117232;1209;22864;-65
2021/04/13 09:49:29;;;;;;;56.60;30.53;;;;;;;10.28;73.29;99816.59;117215;1213;22837;-65
2021/04/13 09:52:11;;;;;;;47.30;29.50;;;;;;;10.35;73.19;99821.88;117254;1209;22836;-66
2021/04/13 09:54:41;;;;;;;51.07;28.90;;;;;;;10.40;73.14;99816.48;117210;1209;23895;-65
2021/04/13 09:57:40;;;;;;;42.83;27.40;;;;;;;10.47;72.85;99817.16;117236;1214;22900;-65
2021/04/13 10:00:08;;;;;;;;;;;;;;;10.50;72.30;99803.04;117226;1213;23014;-65
2021/04/13 10:03:03;;;;;;;43.10;27.33;;;;;;;10.53;72.01;99816.17;117184;1209;21473;-62
2021/04/13 10:05:32;;;;;;;41.90;26.97;;;;;;;10.54;71.78;99804.17;117208;1215;22944;-65
2021/04/13 10:08:23;;;;;;;45.55;30.85;;;;;;;10.55;71.55;99808.54;117182;1209;24096;-63
2021/04/13 10:11:10;;;;;;;47.93;31.80;;;;;;;10.52;71.72;99807.17;117188;1209;22854;-65
2021/04/13 10:14:08;;;;;;;44.00;30.15;;;;;;;10.54;71.66;99809.61;117243;1209;23651;-66
2021/04/13 10:17:02;;;;;;;50.50;29.33;;;;;;;10.50;71.65;99792.14;114896;1212;28712;-64
2021/04/13 10:19:44;;;;;;;45.70;30.47;;;;;;;10.59;71.61;99802.34;117191;1214;22943;-63
2021/04/13 10:22:50;;;;;;;48.13;28.17;;;;;;;10.61;70.81;99802.10;117202;1209;23680;-65
2021/04/13 10:25:41;;;;;;;43.07;28.57;;;;;;;10.60;70.79;99805.90;117220;1213;22852;-63
2021/04/13 10:28:09;;;;;;;46.78;25.45;;;;;;;10.61;70.88;99807.55;116945;1210;24123;-63
2021/04/13 10:31:07;;;;;;;44.90;25.40;;;;;;;10.62;71.00;99799.13;116733;1213;22921;-64
2021/04/13 10:33:58;;;;;;;38.15;24.70;;;;;;;10.68;70.67;99799.18;116851;1218;22840;-64
2021/04/13 10:36:47;;;;;;;38.90;24.15;;;;;;;10.69;70.65;99800.83;116868;1212;22819;-64
2021/04/13 10:39:14;;;;;;;37.15;24.50;;;;;;;10.70;70.60;99794.30;116869;1212;23840;-63
2021/04/13 10:42:16;;;;;;;36.03;23.90;;;;;;;10.71;70.43;99798.68;116876;1212;22867;-64
2021/04/13 10:45:14;;;;;;;43.30;24.75;;;;;;;10.70;70.48;99794.30;116875;1212;22867;-63
2021/04/13 10:47:47;;;;;;;36.80;25.40;;;;;;;10.70;70.63;99800.58;116898;1212;22970;-64
2021/04/13 10:50:53;;;;;;;31.40;22.25;;;;;;;10.72;70.66;99801.16;116789;1216;24610;-64
2021/04/13 10:53:40;;;;;;;38.47;23.93;;;;;;;10.76;70.88;99801.48;116888;1216;22908;-64
2021/04/13 10:56:26;;;;;;;48.10;27.40;;;;;;;10.81;70.73;99796.11;116809;1212;22871;-64
2021/04/13 10:59:29;;;;;;;40.55;26.05;;;;;;;10.81;70.75;99794.21;116834;1213;22861;-64
2021/04/13 11:02:06;;;;;;;37.35;24.90;;;;;;;10.83;70.70;99800.20;116903;1211;22881;-64
2021/04/13 11:04:59;;;;;;;38.63;24.35;;;;;;;10.85;70.47;99794.51;116934;1208;22842;-64
2021/04/13 11:07:33;;;;;;;43.45;23.85;;;;;;;10.87;70.47;99786.91;117347;1209;22877;-63
2021/04/13 11:10:17;;;;;;;37.33;25.07;;;;;;;10.88;70.50;99789.38;117467;1209;22858;-64
2021/04/13 11:12:45;;;;;;;41.50;26.97;;;;;;;10.89;70.33;99790.20;117470;1209;22928;-64
2021/04/13 11:15:53;;;;;;;43.87;26.37;;;;;;;10.86;70.32;99791.53;117396;1209;23508;-64
2021/04/13 11:18:59;;;;;;;37.00;25.33;;;;;;;10.85;70.38;99786.33;117243;1208;22910;-64
2021/04/13 11:21:45;;;;;;;36.45;25.80;;;;;;;10.87;70.59;99789.63;117426;1207;23774;-64
2021/04/13 11:24:38;;;;;;;43.13;26.78;;;;;;;10.89;70.34;99782.86;117649;1208;22825;-64
2021/04/13 11:27:32;;;;;;;39.70;26.17;;;;;;;10.91;70.47;99780.70;114083;1212;26018;-65
2021/04/13 11:30:24;;;;;;;42.40;26.67;;;;;;;10.98;70.59;99786.77;117472;1209;23075;-64
2021/04/13 11:33:19;;;;;;;40.13;26.05;;;;;;;11.04;70.41;99776.77;117216;1211;23776;-64
2021/04/13 11:35:59;;;;;;;51.97;34.40;;;;;;;11.11;70.95;99784.77;117213;1214;22889;-64
2021/04/13 11:38:45;;;;;;;45.00;29.33;;;;;;;11.18;70.42;99779.92;117192;1211;22871;-65
2021/04/13 11:41:31;;;;;;;51.95;32.40;;;;;;;11.20;70.20;99786.77;117207;1215;22918;-65
2021/04/13 11:44:40;;;;;;;52.65;31.85;;;;;;;11.16;69.92;99782.90;117213;1211;23144;-65
2021/04/13 11:47:34;;;;;;;41.85;29.48;;;;;;;11.12;70.18;99770.02;116858;1217;22966;-65
2021/04/13 11:50:22;;;;;;;45.00;29.85;;;;;;;11.12;70.04;99780.93;116821;1213;24158;-64
2021/04/13 11:52:54;;;;;;;47.97;27.73;;;;;;;11.09;70.07;99778.73;116834;1212;24868;-63
2021/04/13 11:55:28;;;;;;;49.40;28.25;;;;;;;11.06;69.95;99762.88;116754;1218;22928;-63
2021/04/13 11:58:02;;;;;;;46.50;29.70;;;;;;;11.04;69.74;99773.21;116811;1212;22988;-63
2021/04/13 12:00:30;;;;;;;45.15;29.05;;;;;;;10.99;70.04;99768.52;116829;1215;23045;-63
2021/04/13 12:03:03;;;;;;;43.10;28.57;;;;;;;10.95;69.98;99764.67;116823;1211;22948;-64
2021/04/13 12:05:34;;;;;;;43.27;28.93;;;;;;;10.93;70.37;99764.92;116810;1217;22879;-63
2021/04/13 12:08:02;;;;;;;44.45;28.70;;;;;;;10.91;70.75;99768.97;116886;1212;23084;-65